Time,TemperatureF,DewpointF,PressureIn,WindDirection,WindDirectionDegrees,WindSpeedMPH,WindSpeedGustMPH,Humidity,HourlyPrecipIn,Conditions,Clouds,dailyrainin,SolarRadiationWatts/m^2,SoftwareType,DateUTC
2013-04-18 00:02:00,23.0,10.0,-100.00,NW,320,11.0,23.0,57,0.00,,,0.04,0.000000,,2013-04-18 06:02:00,
2013-04-18 00:12:00,23.0,10.0,-100.00,NW,320,11.0,23.0,57,0.00,,,0.04,0.000000,,2013-04-18 06:12:00,
2013-04-18 00:22:00,23.0,10.0,-100.00,NW,320,11.0,23.0,57,0.00,,,0.04,0.000000,,2013-04-18 06:22:00,
2013-04-18 00:30:00,22.0,10.0,-100.00,NNW,328,12.0,24.0,60,0.00,,,0.04,0.000000,,2013-04-18 06:30:00,
2013-04-18 00:52:00,22.0,10.0,-100.00,NNW,328,12.0,24.0,60,0.00,,,0.04,0.000000,,2013-04-18 06:52:00,
2013-04-18 01:02:00,22.0,10.0,-100.00,NNW,328,12.0,24.0,60,0.00,,,0.04,0.000000,,2013-04-18 07:02:00,
2013-04-18 01:12:00,22.0,10.0,-100.00,NNW,328,12.0,24.0,60,0.00,,,0.04,0.000000,,2013-04-18 07:12:00,
2013-04-18 01:22:00,22.0,10.0,-100.00,NNW,328,12.0,24.0,60,0.00,,,0.04,0.000000,,2013-04-18 07:22:00,
2013-04-18 01:30:00,21.0,7.0,-100.00,NNW,338,11.0,29.0,55,0.00,,,0.04,0.000000,,2013-04-18 07:30:00,
2013-04-18 01:52:00,21.0,7.0,-100.00,NNW,338,11.0,29.0,55,0.00,,,0.04,0.000000,,2013-04-18 07:52:00,
2013-04-18 02:02:00,21.0,7.0,-100.00,NNW,338,11.0,29.0,55,0.00,,,0.04,0.000000,,2013-04-18 08:02:00,
2013-04-18 02:12:00,21.0,7.0,-100.00,NNW,338,11.0,29.0,55,0.00,,,0.04,0.000000,,2013-04-18 08:12:00,
2013-04-18 02:22:00,21.0,7.0,-100.00,NNW,338,11.0,29.0,55,0.00,,,0.04,0.000000,,2013-04-18 08:22:00,
2013-04-18 02:30:00,21.0,6.0,-100.00,NNW,333,11.0,22.0,52,0.00,,,0.04,0.000000,,2013-04-18 08:30:00,
2013-04-18 02:52:00,21.0,6.0,-100.00,NNW,333,11.0,22.0,52,0.00,,,0.04,0.000000,,2013-04-18 08:52:00,
2013-04-18 03:02:00,21.0,6.0,-100.00,NNW,333,11.0,22.0,52,0.00,,,0.04,0.000000,,2013-04-18 09:02:00,
2013-04-18 03:12:00,21.0,6.0,-100.00,NNW,333,11.0,22.0,52,0.00,,,0.04,0.000000,,2013-04-18 09:12:00,
2013-04-18 03:22:00,21.0,6.0,-100.00,NNW,333,11.0,22.0,52,0.00,,,0.04,0.000000,,2013-04-18 09:22:00,
2013-04-18 03:30:00,21.0,4.0,-100.00,NNW,335,11.0,20.0,48,0.00,,,0.04,0.000000,,2013-04-18 09:30:00,
2013-04-18 03:53:00,21.0,4.0,-100.00,NNW,335,11.0,20.0,48,0.00,,,0.04,0.000000,,2013-04-18 09:53:00,
2013-04-18 04:03:00,21.0,4.0,-100.00,NNW,335,11.0,20.0,48,0.00,,,0.04,0.000000,,2013-04-18 10:03:00,
2013-04-18 04:12:00,21.0,4.0,-100.00,NNW,335,11.0,20.0,48,0.00,,,0.04,0.000000,,2013-04-18 10:12:00,
2013-04-18 04:22:00,21.0,4.0,-100.00,NNW,335,11.0,20.0,48,0.00,,,0.04,0.000000,,2013-04-18 10:22:00,
2013-04-18 04:30:00,21.0,4.0,-100.00,North,349,11.0,22.0,48,0.00,,,-99.99,0.000000,,2013-04-18 10:30:00,
2013-04-18 04:52:00,21.0,4.0,-100.00,North,349,11.0,22.0,48,0.00,,,-99.99,0.000000,,2013-04-18 10:52:00,
2013-04-18 05:02:00,21.0,4.0,-100.00,North,349,11.0,22.0,48,0.00,,,-99.99,0.000000,,2013-04-18 11:02:00,
2013-04-18 05:12:00,21.0,4.0,-100.00,North,349,11.0,22.0,48,0.00,,,-99.99,0.000000,,2013-04-18 11:12:00,
2013-04-18 05:22:00,21.0,4.0,-100.00,North,349,11.0,22.0,48,0.00,,,-99.99,0.000000,,2013-04-18 11:22:00,
2013-04-18 05:30:00,19.0,6.0,-100.00,NNW,339,9.0,20.0,55,0.00,,,0.04,0.000000,,2013-04-18 11:30:00,
2013-04-18 05:52:00,19.0,6.0,-100.00,NNW,339,9.0,20.0,55,0.00,,,0.04,0.000000,,2013-04-18 11:52:00,
2013-04-18 06:02:00,19.0,6.0,-100.00,NNW,339,9.0,20.0,55,0.00,,,0.04,0.000000,,2013-04-18 12:02:00,
2013-04-18 06:12:00,19.0,6.0,-100.00,NNW,339,9.0,20.0,55,0.00,,,0.04,0.000000,,2013-04-18 12:12:00,
2013-04-18 06:22:00,19.0,6.0,-100.00,NNW,339,9.0,20.0,55,0.00,,,0.04,0.000000,,2013-04-18 12:22:00,
2013-04-18 06:30:00,18.0,5.0,-100.00,NNW,332,7.0,16.0,57,0.00,,,0.04,0.000000,,2013-04-18 12:30:00,
2013-04-18 06:52:00,18.0,5.0,-100.00,NNW,332,7.0,16.0,57,0.00,,,0.04,0.000000,,2013-04-18 12:52:00,
2013-04-18 07:02:00,18.0,5.0,-100.00,NNW,332,7.0,16.0,57,0.00,,,0.04,0.000000,,2013-04-18 13:02:00,
2013-04-18 07:12:00,18.0,5.0,-100.00,NNW,332,7.0,16.0,57,0.00,,,0.04,0.000000,,2013-04-18 13:12:00,
2013-04-18 07:22:00,18.0,5.0,-100.00,NNW,332,7.0,16.0,57,0.00,,,0.04,0.000000,,2013-04-18 13:22:00,
2013-04-18 07:30:00,22.0,8.0,-100.00,NNW,332,8.0,15.0,54,0.00,,,0.04,71.000000,,2013-04-18 13:30:00,
2013-04-18 07:53:00,22.0,8.0,-100.00,NNW,332,8.0,15.0,54,0.00,,,0.04,71.000000,,2013-04-18 13:53:00,
2013-04-18 08:02:00,22.0,8.0,-100.00,NNW,332,8.0,15.0,54,0.00,,,0.04,71.000000,,2013-04-18 14:02:00,
2013-04-18 08:12:00,22.0,8.0,-100.00,NNW,332,8.0,15.0,54,0.00,,,0.04,71.000000,,2013-04-18 14:12:00,
2013-04-18 08:22:00,22.0,8.0,-100.00,NNW,332,8.0,15.0,54,0.00,,,0.04,71.000000,,2013-04-18 14:22:00,
2013-04-18 08:30:00,24.0,8.0,-100.00,NNW,327,10.0,21.0,50,0.00,,,0.04,330.000000,,2013-04-18 14:30:00,
2013-04-18 08:52:00,24.0,8.0,-100.00,NNW,327,10.0,21.0,50,0.00,,,0.04,330.000000,,2013-04-18 14:52:00,
2013-04-18 09:02:00,24.0,8.0,-100.00,NNW,327,10.0,21.0,50,0.00,,,0.04,330.000000,,2013-04-18 15:02:00,
2013-04-18 09:12:00,24.0,8.0,-100.00,NNW,327,10.0,21.0,50,0.00,,,0.04,330.000000,,2013-04-18 15:12:00,
2013-04-18 09:22:00,24.0,8.0,-100.00,NNW,327,10.0,21.0,50,0.00,,,0.04,330.000000,,2013-04-18 15:22:00,
2013-04-18 09:30:00,28.0,9.0,-100.00,NNW,336,9.0,19.0,44,0.00,,,0.04,582.000000,,2013-04-18 15:30:00,
2013-04-18 09:53:00,28.0,9.0,-100.00,NNW,336,9.0,19.0,44,0.00,,,0.04,582.000000,,2013-04-18 15:53:00,
2013-04-18 10:03:00,28.0,9.0,-100.00,NNW,336,9.0,19.0,44,0.00,,,0.04,582.000000,,2013-04-18 16:03:00,
2013-04-18 10:13:00,28.0,9.0,-100.00,NNW,336,9.0,19.0,44,0.00,,,0.04,582.000000,,2013-04-18 16:13:00,
2013-04-18 10:22:00,28.0,9.0,-100.00,NNW,336,9.0,19.0,44,0.00,,,0.04,582.000000,,2013-04-18 16:22:00,
2013-04-18 10:30:00,30.0,6.0,-100.00,NNW,329,12.0,22.0,36,0.00,,,0.02,765.000000,,2013-04-18 16:30:00,
2013-04-18 10:53:00,30.0,6.0,-100.00,NNW,329,12.0,22.0,36,0.00,,,0.02,765.000000,,2013-04-18 16:53:00,
2013-04-18 11:02:00,30.0,6.0,-100.00,NNW,329,12.0,22.0,36,0.00,,,0.02,765.000000,,2013-04-18 17:02:00,
2013-04-18 11:12:00,30.0,6.0,-100.00,NNW,329,12.0,22.0,36,0.00,,,0.02,765.000000,,2013-04-18 17:12:00,
2013-04-18 11:22:00,30.0,6.0,-100.00,NNW,329,12.0,22.0,36,0.00,,,0.02,765.000000,,2013-04-18 17:22:00,
2013-04-18 11:30:00,33.0,6.0,-100.00,NNW,334,11.0,25.0,32,0.00,,,0.00,916.000000,,2013-04-18 17:30:00,
2013-04-18 11:52:00,33.0,6.0,-100.00,NNW,334,11.0,25.0,32,0.00,,,0.00,916.000000,,2013-04-18 17:52:00,
2013-04-18 12:02:00,33.0,6.0,-100.00,NNW,334,11.0,25.0,32,0.00,,,0.00,916.000000,,2013-04-18 18:02:00,
2013-04-18 12:12:00,33.0,6.0,-100.00,NNW,334,11.0,25.0,32,0.00,,,0.00,916.000000,,2013-04-18 18:12:00,
2013-04-18 12:22:00,33.0,6.0,-100.00,NNW,334,11.0,25.0,32,0.00,,,0.00,916.000000,,2013-04-18 18:22:00,
2013-04-18 12:30:00,33.0,6.0,-100.00,North,349,12.0,24.0,31,0.00,,,0.00,965.000000,,2013-04-18 18:30:00,
2013-04-18 12:52:00,33.0,6.0,-100.00,North,349,12.0,24.0,31,0.00,,,0.00,965.000000,,2013-04-18 18:52:00,
2013-04-18 13:02:00,33.0,6.0,-100.00,North,349,12.0,24.0,31,0.00,,,0.00,965.000000,,2013-04-18 19:02:00,
2013-04-18 13:12:00,33.0,6.0,-100.00,North,349,12.0,24.0,31,0.00,,,0.00,965.000000,,2013-04-18 19:12:00,
2013-04-18 13:22:00,33.0,6.0,-100.00,North,349,12.0,24.0,31,0.00,,,0.00,965.000000,,2013-04-18 19:22:00,
2013-04-18 13:30:00,36.0,2.0,-100.00,NNW,337,12.0,25.0,23,0.00,,,0.00,909.000000,,2013-04-18 19:30:00,
2013-04-18 13:52:00,36.0,2.0,-100.00,NNW,337,12.0,25.0,23,0.00,,,0.00,909.000000,,2013-04-18 19:52:00,
2013-04-18 14:02:00,36.0,2.0,-100.00,NNW,337,12.0,25.0,23,0.00,,,0.00,909.000000,,2013-04-18 20:02:00,
2013-04-18 14:12:00,36.0,2.0,-100.00,NNW,337,12.0,25.0,23,0.00,,,0.00,909.000000,,2013-04-18 20:12:00,
2013-04-18 14:22:00,36.0,2.0,-100.00,NNW,337,12.0,25.0,23,0.00,,,0.00,909.000000,,2013-04-18 20:22:00,
2013-04-18 14:30:00,37.0,4.0,-100.00,NNW,334,11.0,23.0,24,0.00,,,0.00,1082.000000,,2013-04-18 20:30:00,
2013-04-18 14:52:00,37.0,4.0,-100.00,NNW,334,11.0,23.0,24,0.00,,,0.00,1082.000000,,2013-04-18 20:52:00,
2013-04-18 15:02:00,37.0,4.0,-100.00,NNW,334,11.0,23.0,24,0.00,,,0.00,1082.000000,,2013-04-18 21:02:00,
2013-04-18 15:12:00,37.0,4.0,-100.00,NNW,334,11.0,23.0,24,0.00,,,0.00,1082.000000,,2013-04-18 21:12:00,
2013-04-18 15:22:00,37.0,4.0,-100.00,NNW,334,11.0,23.0,24,0.00,,,0.00,1082.000000,,2013-04-18 21:22:00,
2013-04-18 15:30:00,36.0,5.0,-100.00,NNW,329,10.0,24.0,27,0.00,,,0.00,777.000000,,2013-04-18 21:30:00,
2013-04-18 15:53:00,36.0,5.0,-100.00,NNW,329,10.0,24.0,27,0.00,,,0.00,777.000000,,2013-04-18 21:53:00,
2013-04-18 16:02:00,36.0,5.0,-100.00,NNW,329,10.0,24.0,27,0.00,,,0.00,777.000000,,2013-04-18 22:02:00,
2013-04-18 16:12:00,36.0,5.0,-100.00,NNW,329,10.0,24.0,27,0.00,,,0.00,777.000000,,2013-04-18 22:12:00,
2013-04-18 16:22:00,36.0,5.0,-100.00,NNW,329,10.0,24.0,27,0.00,,,0.00,777.000000,,2013-04-18 22:22:00,
2013-04-18 16:30:00,37.0,7.0,-100.00,NNW,340,11.0,25.0,28,0.00,,,0.00,745.000000,,2013-04-18 22:30:00,
2013-04-18 16:52:00,37.0,7.0,-100.00,NNW,340,11.0,25.0,28,0.00,,,0.00,745.000000,,2013-04-18 22:52:00,
2013-04-18 17:03:00,37.0,7.0,-100.00,NNW,340,11.0,25.0,28,0.00,,,0.00,745.000000,,2013-04-18 23:03:00,
2013-04-18 17:11:00,37.0,7.0,-100.00,NNW,340,11.0,25.0,28,0.00,,,0.00,745.000000,,2013-04-18 23:11:00,
2013-04-18 17:21:00,37.0,7.0,-100.00,NNW,340,11.0,25.0,28,0.00,,,0.00,745.000000,,2013-04-18 23:21:00,
2013-04-18 17:30:00,36.0,5.0,-100.00,NNW,343,11.0,26.0,27,0.00,,,0.00,638.000000,,2013-04-18 23:30:00,
2013-04-18 17:52:00,36.0,5.0,-100.00,NNW,343,11.0,26.0,27,0.00,,,0.00,638.000000,,2013-04-18 23:52:00,
2013-04-18 18:01:00,36.0,5.0,-100.00,NNW,343,11.0,26.0,27,0.00,,,0.00,638.000000,,2013-04-19 00:01:00,
2013-04-18 18:12:00,36.0,5.0,-100.00,NNW,343,11.0,26.0,27,0.00,,,0.00,638.000000,,2013-04-19 00:12:00,
2013-04-18 18:21:00,36.0,5.0,-100.00,NNW,343,11.0,26.0,27,0.00,,,0.00,638.000000,,2013-04-19 00:21:00,
2013-04-18 18:30:00,36.0,3.0,-100.00,NNW,336,10.0,27.0,24,0.00,,,0.00,383.000000,,2013-04-19 00:30:00,
2013-04-18 18:52:00,36.0,3.0,-100.00,NNW,336,10.0,27.0,24,0.00,,,0.00,383.000000,,2013-04-19 00:52:00,
2013-04-18 19:01:00,36.0,3.0,-100.00,NNW,336,10.0,27.0,24,0.00,,,0.00,383.000000,,2013-04-19 01:01:00,
2013-04-18 19:11:00,36.0,3.0,-100.00,NNW,336,10.0,27.0,24,0.00,,,0.00,383.000000,,2013-04-19 01:11:00,
2013-04-18 19:21:00,36.0,3.0,-100.00,NNW,336,10.0,27.0,24,0.00,,,0.00,383.000000,,2013-04-19 01:21:00,
2013-04-18 19:30:00,32.0,3.0,-100.00,NNW,331,9.0,22.0,29,0.00,,,0.00,95.000000,,2013-04-19 01:30:00,
2013-04-18 19:52:00,32.0,3.0,-100.00,NNW,331,9.0,22.0,29,0.00,,,0.00,95.000000,,2013-04-19 01:52:00,
2013-04-18 20:01:00,32.0,3.0,-100.00,NNW,331,9.0,22.0,29,0.00,,,0.00,95.000000,,2013-04-19 02:01:00,
2013-04-18 20:11:00,32.0,3.0,-100.00,NNW,331,9.0,22.0,29,0.00,,,0.00,95.000000,,2013-04-19 02:11:00,
2013-04-18 20:21:00,32.0,3.0,-100.00,NNW,331,9.0,22.0,29,0.00,,,0.00,95.000000,,2013-04-19 02:21:00,
2013-04-18 20:30:00,29.0,4.0,-100.00,NNW,332,6.0,20.0,33,0.00,,,0.00,6.000000,,2013-04-19 02:30:00,
2013-04-18 20:52:00,29.0,4.0,-100.00,NNW,332,6.0,20.0,33,0.00,,,0.00,6.000000,,2013-04-19 02:52:00,
2013-04-18 21:01:00,29.0,4.0,-100.00,NNW,332,6.0,20.0,33,0.00,,,0.00,6.000000,,2013-04-19 03:01:00,
2013-04-18 21:11:00,29.0,4.0,-100.00,NNW,332,6.0,20.0,33,0.00,,,0.00,6.000000,,2013-04-19 03:11:00,
2013-04-18 21:21:00,29.0,4.0,-100.00,NNW,332,6.0,20.0,33,0.00,,,0.00,6.000000,,2013-04-19 03:21:00,
2013-04-18 21:30:00,27.0,5.0,-100.00,NW,320,2.0,12.0,38,0.00,,,0.00,0.000000,,2013-04-19 03:30:00,
2013-04-18 21:53:00,27.0,5.0,-100.00,NW,320,2.0,12.0,38,0.00,,,0.00,0.000000,,2013-04-19 03:53:00,
2013-04-18 22:03:00,27.0,5.0,-100.00,NW,320,2.0,12.0,38,0.00,,,0.00,0.000000,,2013-04-19 04:03:00,
2013-04-18 22:13:00,27.0,5.0,-100.00,NW,320,2.0,12.0,38,0.00,,,0.00,0.000000,,2013-04-19 04:13:00,
2013-04-18 22:23:00,27.0,5.0,-100.00,NW,320,2.0,12.0,38,0.00,,,0.00,0.000000,,2013-04-19 04:23:00,
2013-04-18 22:30:00,26.0,3.0,-100.00,West,275,2.0,7.0,36,0.00,,,0.00,0.000000,,2013-04-19 04:30:00,
2013-04-18 22:52:00,26.0,3.0,-100.00,West,275,2.0,7.0,36,0.00,,,0.00,0.000000,,2013-04-19 04:52:00,
2013-04-18 23:03:00,26.0,3.0,-100.00,West,275,2.0,7.0,36,0.00,,,0.00,0.000000,,2013-04-19 05:03:00,
2013-04-18 23:11:00,26.0,3.0,-100.00,West,275,2.0,7.0,36,0.00,,,0.00,0.000000,,2013-04-19 05:11:00,
2013-04-18 23:22:00,26.0,3.0,-100.00,West,275,2.0,7.0,36,0.00,,,0.00,0.000000,,2013-04-19 05:22:00,
2013-04-18 23:30:00,25.0,1.0,-100.00,SW,224,2.0,6.0,34,0.00,,,0.00,0.000000,,2013-04-19 05:30:00,
2013-04-18 23:52:00,25.0,1.0,-100.00,SW,224,2.0,6.0,34,0.00,,,0.00,0.000000,,2013-04-19 05:52:00,